createdAt,value
2016-12-21T00:00:11.373Z,81.7
2016-12-21T00:01:45.264Z,81.6
2016-12-21T00:03:18.595Z,81.41
2016-12-21T00:04:51.829Z,81.41
2016-12-21T00:06:24.825Z,81.32
2016-12-21T00:07:58.394Z,81.32
2016-12-21T00:09:32.332Z,81.41
2016-12-21T00:11:05.823Z,80.84
2016-12-21T00:12:59.130Z,81.6
2016-12-21T00:14:34.302Z,81.93
2016-12-21T00:16:07.273Z,82.54
2016-12-21T00:17:43.824Z,82.45
2016-12-21T00:19:20.856Z,82.17
2016-12-21T00:21:15.591Z,81.88
2016-12-21T00:22:51.676Z,81.93
2016-12-21T00:24:27.430Z,82.17
2016-12-21T00:25:56.000Z,82.26
2016-12-21T00:27:29.895Z,81.88
2016-12-21T00:29:03.459Z,82.22
2016-12-21T00:30:36.513Z,82.83
2016-12-21T00:32:11.052Z,82.45
2016-12-21T00:33:44.513Z,82.17
2016-12-21T00:35:47.499Z,81.98
2016-12-21T00:37:20.904Z,82.35
2016-12-21T00:38:54.443Z,82.17
2016-12-21T00:40:27.664Z,81.88
2016-12-21T00:42:03.198Z,82.17
2016-12-21T00:43:17.102Z,82.54
2016-12-21T00:44:31.715Z,81.88
2016-12-21T00:45:46.078Z,82.54
2016-12-21T00:47:01.590Z,81.98
2016-12-21T00:48:16.732Z,81.79
2016-12-21T00:49:30.951Z,81.32
2016-12-21T00:50:44.724Z,80.94
2016-12-21T00:51:59.268Z,81.46
2016-12-21T00:53:13.919Z,81.51
2016-12-21T00:54:28.992Z,81.7
2016-12-21T00:55:57.563Z,82.12
2016-12-21T00:57:11.736Z,82.31
2016-12-21T00:58:25.872Z,83.17
2016-12-21T00:59:39.924Z,82.88
2016-12-21T01:00:54.009Z,82.69
2016-12-21T01:02:08.073Z,82.79
2016-12-21T01:03:21.876Z,82.41
2016-12-21T01:04:35.826Z,82.17
2016-12-21T01:05:49.524Z,82.12
2016-12-21T01:07:03.472Z,82.07
2016-12-21T01:08:17.359Z,81.65
2016-12-21T01:09:31.163Z,81.7
2016-12-21T01:10:45.388Z,81.7
2016-12-21T01:11:59.076Z,81.65
2016-12-21T01:13:13.079Z,81.46
2016-12-21T01:14:27.021Z,81.84
2016-12-21T01:15:40.787Z,82.03
2016-12-21T01:16:54.813Z,81.74
2016-12-21T01:18:08.647Z,81.56
2016-12-21T01:19:22.985Z,81.46
2016-12-21T01:20:37.211Z,81.56
2016-12-21T01:21:50.951Z,81.84
2016-12-21T01:23:04.950Z,82.03
2016-12-21T01:24:19.040Z,81.84
2016-12-21T01:25:32.829Z,82.12
2016-12-21T01:26:46.778Z,82.41
2016-12-21T01:28:01.063Z,83.26
2016-12-21T01:29:15.205Z,82.98
2016-12-21T01:30:28.970Z,83.83
2016-12-21T01:31:42.686Z,83.36
2016-12-21T01:32:57.052Z,83.78
2016-12-21T01:34:11.461Z,83.68
2016-12-21T01:35:25.634Z,82.92
2016-12-21T01:36:40.148Z,82.79
2016-12-21T01:37:54.529Z,81.98
2016-12-21T01:39:08.457Z,82.07
2016-12-21T01:40:23.250Z,82.22
2016-12-21T01:41:37.657Z,81.74
2016-12-21T01:42:51.834Z,82.5
2016-12-21T01:44:07.882Z,82.69
2016-12-21T01:45:23.684Z,82.98
2016-12-21T01:46:39.016Z,83.07
2016-12-21T01:47:53.568Z,82.41
2016-12-21T01:49:07.564Z,82.45
2016-12-21T01:50:21.321Z,82.12
2016-12-21T01:51:36.172Z,81.88
2016-12-21T01:52:51.579Z,82.12
2016-12-21T01:54:07.183Z,81.93
2016-12-21T01:55:22.195Z,82.79
2016-12-21T01:56:37.491Z,82.98
2016-12-21T01:57:53.248Z,82.98
2016-12-21T01:59:11.511Z,83.17
2016-12-21T02:00:26.280Z,83.07
2016-12-21T02:04:23.056Z,82.88
2016-12-21T02:05:37.286Z,82.79
2016-12-21T02:06:51.035Z,82.12
2016-12-21T02:08:05.598Z,82.03
2016-12-21T02:09:19.690Z,82.12
2016-12-21T02:10:33.392Z,81.84
2016-12-21T02:12:02.234Z,81.46
2016-12-21T02:13:16.316Z,81.46
2016-12-21T02:14:30.337Z,81.84
2016-12-21T02:15:44.686Z,81.74
2016-12-21T02:16:58.516Z,81.74
2016-12-21T02:18:12.698Z,81.84
2016-12-21T02:19:26.736Z,81.84
2016-12-21T02:20:40.953Z,81.56
2016-12-21T02:21:54.712Z,81.74
2016-12-21T02:23:08.929Z,82.12
2016-12-21T02:24:23.744Z,81.84
2016-12-21T02:25:38.078Z,82.03
2016-12-21T02:26:51.827Z,82.5
2016-12-21T02:28:05.586Z,82.5
2016-12-21T02:29:19.494Z,82.03
2016-12-21T02:30:33.757Z,82.03
2016-12-21T02:31:47.439Z,82.31
2016-12-21T02:33:01.745Z,81.93
2016-12-21T02:34:16.285Z,81.65
2016-12-21T02:35:30.047Z,81.65
2016-12-21T02:36:43.976Z,81.74
2016-12-21T02:37:57.650Z,81.93
2016-12-21T02:39:11.634Z,81.93
2016-12-21T02:40:25.654Z,82.03
2016-12-21T02:41:39.486Z,81.84
2016-12-21T02:42:54.197Z,82.45
2016-12-21T02:44:08.015Z,82.92
2016-12-21T02:45:21.846Z,82.83
2016-12-21T02:46:35.830Z,82.26
2016-12-21T02:47:50.659Z,82.03
2016-12-21T02:49:05.507Z,81.7
2016-12-21T02:50:19.506Z,81.51
2016-12-21T02:51:33.565Z,81.7
2016-12-21T02:52:48.011Z,81.79
2016-12-21T02:54:02.127Z,81.7
2016-12-21T02:55:16.322Z,81.51
2016-12-21T02:56:30.049Z,81.41
2016-12-21T02:57:43.883Z,81.7
2016-12-21T02:58:57.732Z,81.51
2016-12-21T03:00:11.843Z,81.7
2016-12-21T03:01:26.761Z,81.79
2016-12-21T03:02:40.813Z,81.13
2016-12-21T03:03:55.312Z,81.22
2016-12-21T03:05:09.354Z,81.51
2016-12-21T03:06:23.047Z,81.7
2016-12-21T03:07:37.039Z,82.17
2016-12-21T03:08:51.430Z,81.88
2016-12-21T03:10:06.225Z,82.17
2016-12-21T03:11:20.338Z,82.17
2016-12-21T03:12:34.276Z,81.7
2016-12-21T03:13:48.523Z,82.45
2016-12-21T03:15:02.870Z,82.54
2016-12-21T03:16:17.502Z,82.64
2016-12-21T03:17:34.095Z,82.54
2016-12-21T03:18:47.809Z,82.64
2016-12-21T03:20:01.856Z,82.35
2016-12-21T03:21:15.715Z,82.17
2016-12-21T03:22:29.826Z,82.35
2016-12-21T03:23:44.726Z,82.54
2016-12-21T03:24:58.830Z,82.17
2016-12-21T03:26:13.768Z,81.88
2016-12-21T03:27:28.198Z,81.98
2016-12-21T03:28:43.628Z,81.88
2016-12-21T03:29:58.397Z,81.98
2016-12-21T03:31:14.179Z,82.45
2016-12-21T03:32:28.769Z,82.45
2016-12-21T03:33:45.394Z,82.07
2016-12-21T03:35:01.689Z,82.07
2016-12-21T03:36:19.016Z,82.02
2016-12-21T03:37:36.398Z,81.93
2016-12-21T03:38:51.974Z,81.64
2016-12-21T03:40:06.278Z,81.83
2016-12-21T03:41:20.879Z,81.93
2016-12-21T03:42:35.132Z,81.93
2016-12-21T03:43:49.557Z,81.45
2016-12-21T03:45:03.759Z,81.74
2016-12-21T03:46:17.736Z,81.93
2016-12-21T03:47:31.558Z,81.83
2016-12-21T03:48:47.497Z,82.12
2016-12-21T03:50:03.263Z,81.74
2016-12-21T03:51:18.226Z,81.74
2016-12-21T03:52:33.059Z,81.64
2016-12-21T03:53:48.607Z,81.64
2016-12-21T03:55:03.569Z,81.83
2016-12-21T03:56:19.426Z,81.74
2016-12-21T03:57:33.949Z,81.93
2016-12-21T03:58:47.925Z,81.55
2016-12-21T04:00:01.906Z,82.21
2016-12-21T04:01:16.313Z,82.4
2016-12-21T04:02:30.023Z,82.02
2016-12-21T04:03:44.473Z,82.4
2016-12-21T04:04:59.269Z,81.93
2016-12-21T04:06:13.011Z,82.02
2016-12-21T04:07:26.990Z,82.87
2016-12-21T04:08:41.049Z,82.97
2016-12-21T04:09:55.346Z,82.78
2016-12-21T04:11:09.281Z,83.91
2016-12-21T04:12:22.954Z,82.97
2016-12-21T04:13:36.786Z,82.97
2016-12-21T04:14:51.793Z,83.06
2016-12-21T04:16:05.749Z,83.25
2016-12-21T04:17:19.435Z,83.25
2016-12-21T04:18:33.497Z,83.06
2016-12-21T04:19:47.287Z,83.82
2016-12-21T04:21:01.245Z,84.01
2016-12-21T04:22:15.525Z,84.48
2016-12-21T04:23:29.652Z,84.58
2016-12-21T04:24:43.746Z,84.67
2016-12-21T04:25:57.686Z,84.29
2016-12-21T04:27:12.045Z,84.67
2016-12-21T04:28:26.688Z,84.58
2016-12-21T04:29:40.393Z,84.39
2016-12-21T04:30:54.192Z,84.67
2016-12-21T04:32:08.158Z,85.14
2016-12-21T04:33:22.171Z,85.24
2016-12-21T04:34:38.424Z,85.14
2016-12-21T04:35:52.146Z,85
2016-12-21T04:37:06.280Z,85.19
2016-12-21T04:38:20.131Z,85.38
2016-12-21T04:39:34.210Z,85.57
2016-12-21T04:40:48.440Z,85.38
2016-12-21T04:42:02.540Z,85.42
2016-12-21T04:43:16.313Z,85
2016-12-21T04:44:30.025Z,85.47
2016-12-21T04:45:44.807Z,85.57
2016-12-21T04:46:58.906Z,85.52
2016-12-21T04:48:12.747Z,85.14
2016-12-21T04:49:27.139Z,85.24
2016-12-21T04:50:41.762Z,85.61
2016-12-21T04:51:56.108Z,85.71
2016-12-21T04:53:14.905Z,85.76
2016-12-21T04:54:45.872Z,85.71
2016-12-21T04:56:03.920Z,85.71
2016-12-21T04:57:23.066Z,85.52
2016-12-21T04:58:40.543Z,85.9
2016-12-21T04:59:58.017Z,85.8
2016-12-21T05:01:12.586Z,85.42
2016-12-21T05:02:26.952Z,85.9
2016-12-21T05:03:40.903Z,85.99
2016-12-21T05:04:55.048Z,85.9
2016-12-21T05:06:09.032Z,86.09
2016-12-21T05:07:23.091Z,86.47
2016-12-21T05:08:37.473Z,86.66
2016-12-21T05:09:53.480Z,86.66
2016-12-21T05:11:08.701Z,86.75
2016-12-21T05:12:23.223Z,86.85
2016-12-21T05:13:37.002Z,86.75
2016-12-21T05:14:51.185Z,86.75
2016-12-21T05:16:05.553Z,86.47
2016-12-21T05:17:19.949Z,86.37
2016-12-21T05:18:33.903Z,86.85
2016-12-21T05:19:47.751Z,86.85
2016-12-21T05:21:02.014Z,86.66
2016-12-21T05:22:15.997Z,86.18
2016-12-21T05:23:29.749Z,86.85
2016-12-21T05:24:44.147Z,87.23
2016-12-21T05:25:58.486Z,87.41
2016-12-21T05:27:12.787Z,87.6
2016-12-21T05:28:29.444Z,87.6
2016-12-21T05:29:45.286Z,87.6
2016-12-21T05:31:02.463Z,87.6
2016-12-21T05:32:34.197Z,87.51
2016-12-21T05:33:50.910Z,87.6
2016-12-21T05:35:07.584Z,87.41
2016-12-21T05:36:23.246Z,87.23
2016-12-21T05:37:38.181Z,87.51
2016-12-21T05:38:53.400Z,86.94
2016-12-21T05:40:08.518Z,87.04
2016-12-21T05:41:23.190Z,86.94
2016-12-21T05:42:37.446Z,86.85
2016-12-21T05:43:51.584Z,86.37
2016-12-21T05:45:05.466Z,86.94
2016-12-21T05:46:19.248Z,86.37
2016-12-21T05:47:33.192Z,86.66
2016-12-21T05:48:47.528Z,86.09
2016-12-21T05:50:01.803Z,85.61
2016-12-21T05:51:15.785Z,85.61
2016-12-21T05:52:33.113Z,86.09
2016-12-21T05:53:47.175Z,86.37
2016-12-21T05:55:02.504Z,86.37
2016-12-21T05:56:16.653Z,86.18
2016-12-21T05:57:30.870Z,86.47
2016-12-21T05:58:44.955Z,86.28
2016-12-21T05:59:58.822Z,86.66
2016-12-21T06:01:12.906Z,86.56
2016-12-21T06:02:26.737Z,86.66
2016-12-21T06:03:40.454Z,86.47
2016-12-21T06:04:54.786Z,86.75
2016-12-21T06:06:08.877Z,86.94
2016-12-21T06:07:22.874Z,86.94
2016-12-21T06:08:36.574Z,87.23
2016-12-21T06:09:50.274Z,86.37
2016-12-21T06:11:05.959Z,86.56
2016-12-21T06:12:20.987Z,86.09
2016-12-21T06:13:36.806Z,87.41
2016-12-21T06:14:52.371Z,86.94
2016-12-21T06:16:07.996Z,87.23
2016-12-21T06:17:23.499Z,87.13
2016-12-21T06:18:39.369Z,87.51
2016-12-21T06:19:54.209Z,87.41
2016-12-21T06:21:09.888Z,86.85
2016-12-21T06:22:26.254Z,87.23
2016-12-21T06:23:44.745Z,87.79
2016-12-21T06:25:16.995Z,88.55
2016-12-21T06:26:35.518Z,88.26
2016-12-21T06:27:52.992Z,88.36
2016-12-21T06:29:10.937Z,88.26
2016-12-21T06:30:27.737Z,88.17
2016-12-21T06:31:45.049Z,88.45
2016-12-21T06:33:02.786Z,88.07
2016-12-21T06:34:19.410Z,88.45
2016-12-21T06:35:34.267Z,88.64
2016-12-21T06:36:48.570Z,88.55
2016-12-21T06:38:02.456Z,88.45
2016-12-21T06:39:16.829Z,88.55
2016-12-21T06:40:30.599Z,88.36
2016-12-21T06:41:45.306Z,88.45
2016-12-21T06:43:01.095Z,88.36
2016-12-21T06:44:16.471Z,88.36
2016-12-21T06:45:31.958Z,88.36
2016-12-21T06:46:47.980Z,88.45
2016-12-21T06:48:02.421Z,88.36
2016-12-21T06:49:16.804Z,88.64
2016-12-21T06:50:31.469Z,89.02
2016-12-21T06:51:45.831Z,88.93
2016-12-21T06:53:00.444Z,89.12
2016-12-21T06:54:14.387Z,88.55
2016-12-21T06:55:28.742Z,88.83
2016-12-21T06:56:42.527Z,89.59
2016-12-21T06:57:56.607Z,88.93
2016-12-21T06:59:12.219Z,89.12
2016-12-21T07:00:27.187Z,88.93
2016-12-21T07:01:42.076Z,88.55
2016-12-21T07:03:12.568Z,88.55
2016-12-21T07:04:28.553Z,88.93
2016-12-21T07:05:43.429Z,88.74
2016-12-21T07:06:57.179Z,89.12
2016-12-21T07:08:11.526Z,88.74
2016-12-21T07:09:26.086Z,89.5
2016-12-21T07:10:42.669Z,89.69
2016-12-21T07:11:57.358Z,89.02
2016-12-21T07:13:11.958Z,88.93
2016-12-21T07:14:26.424Z,89.12
2016-12-21T07:15:40.287Z,89.5
2016-12-21T07:16:54.387Z,89.87
2016-12-21T07:18:23.307Z,89.69
2016-12-21T07:19:37.539Z,89.59
2016-12-21T07:20:52.058Z,90.91
2016-12-21T07:22:06.493Z,92.8
2016-12-21T07:23:21.085Z,94.46
2016-12-21T07:24:35.010Z,90.67
2016-12-21T07:25:49.540Z,88.59
2016-12-21T07:27:05.187Z,88.12
2016-12-21T07:28:23.240Z,88.4
2016-12-21T07:29:41.388Z,88.49
2016-12-21T07:30:59.265Z,88.21
2016-12-21T07:32:17.695Z,87.46
2016-12-21T07:33:33.593Z,87.74
2016-12-21T07:34:48.080Z,87.93
2016-12-21T07:36:02.807Z,87.65
2016-12-21T07:37:16.952Z,88.59
2016-12-21T07:38:30.990Z,88.64
2016-12-21T07:39:45.367Z,87.84
2016-12-21T07:40:59.506Z,87.74
2016-12-21T07:42:13.536Z,87.55
2016-12-21T07:43:27.976Z,88.02
2016-12-21T07:44:42.159Z,88.12
2016-12-21T07:45:55.904Z,87.93
2016-12-21T07:47:24.992Z,87.84
2016-12-21T07:48:39.303Z,87.84
2016-12-21T07:49:53.401Z,88.02
2016-12-21T07:51:07.504Z,88.68
2016-12-21T07:52:21.203Z,88.02
2016-12-21T07:53:35.283Z,87.93
2016-12-21T07:54:49.519Z,87.65
2016-12-21T07:56:03.931Z,88.31
2016-12-21T07:57:18.387Z,88.17
2016-12-21T07:58:32.158Z,89.31
2016-12-21T07:59:46.432Z,88.26
2016-12-21T08:01:00.419Z,88.64
2016-12-21T08:02:14.528Z,89.31
2016-12-21T08:03:28.342Z,88.64
2016-12-21T08:04:42.556Z,88.26
2016-12-21T08:05:56.307Z,88.55
2016-12-21T08:07:11.203Z,88.07
2016-12-21T08:08:25.422Z,88.36
2016-12-21T08:09:40.383Z,88.45
2016-12-21T08:10:55.021Z,88.17
2016-12-21T08:12:10.285Z,88.36
2016-12-21T08:13:24.502Z,88.55
2016-12-21T08:14:39.135Z,88.45
2016-12-21T08:15:52.976Z,87.88
2016-12-21T08:17:06.803Z,88.45
2016-12-21T08:18:21.185Z,88.45
2016-12-21T08:19:35.183Z,88.36
2016-12-21T08:20:49.267Z,87.98
2016-12-21T08:22:03.923Z,87.79
2016-12-21T08:23:17.612Z,87.7
2016-12-21T08:24:31.431Z,88.45
2016-12-21T08:25:46.130Z,87.7
2016-12-21T08:27:00.203Z,87.98
2016-12-21T08:28:16.921Z,88.26
2016-12-21T08:29:31.065Z,87.6
2016-12-21T08:30:44.880Z,87.27
2016-12-21T08:31:59.252Z,87.36
2016-12-21T08:33:14.048Z,87.46
2016-12-21T08:34:28.362Z,87.32
2016-12-21T08:35:42.162Z,87.88
2016-12-21T08:36:55.942Z,88.07
2016-12-21T08:38:24.847Z,88.36
2016-12-21T08:39:38.904Z,88.55
2016-12-21T08:40:53.219Z,87.88
2016-12-21T08:42:07.310Z,88.74
2016-12-21T08:43:21.605Z,87.84
2016-12-21T08:44:36.306Z,87.74
2016-12-21T08:45:50.445Z,87.65
2016-12-21T08:47:04.984Z,87.98
2016-12-21T08:48:19.905Z,87.74
2016-12-21T08:49:34.285Z,87.65
2016-12-21T08:51:05.316Z,87.27
2016-12-21T08:52:34.532Z,86.98
2016-12-21T08:55:48.278Z,87.17
2016-12-21T08:57:05.132Z,86.89
2016-12-21T08:58:22.484Z,86.7
2016-12-21T08:59:39.755Z,87.08
2016-12-21T09:00:57.302Z,87.36
2016-12-21T09:02:14.560Z,87.46
2016-12-21T09:03:32.862Z,87.46
2016-12-21T09:04:51.102Z,87.65
2016-12-21T09:06:09.557Z,87.65
2016-12-21T09:07:27.002Z,88.02
2016-12-21T09:08:41.483Z,87.65
2016-12-21T09:09:57.063Z,87.65
2016-12-21T09:11:14.166Z,87.55
2016-12-21T09:12:31.604Z,87.65
2016-12-21T09:13:48.452Z,87.55
2016-12-21T09:15:06.241Z,87.46
2016-12-21T09:16:24.131Z,87.74
2016-12-21T09:17:41.783Z,87.84
2016-12-21T09:19:00.030Z,87.46
2016-12-21T09:20:18.119Z,88.4
2016-12-21T09:21:35.768Z,88.12
2016-12-21T09:22:52.347Z,88.64
2016-12-21T09:24:08.002Z,88.59
2016-12-21T09:25:23.251Z,88.49
2016-12-21T09:26:38.170Z,88.21
2016-12-21T09:27:54.089Z,88.36
2016-12-21T09:29:11.212Z,88.49
2016-12-21T09:30:29.195Z,88.17
2016-12-21T09:31:47.738Z,88.36
2016-12-21T09:33:06.017Z,88.26
2016-12-21T09:34:22.656Z,89.21
2016-12-21T09:35:40.097Z,88.78
2016-12-21T09:36:57.485Z,88.4
2016-12-21T09:38:14.760Z,87.93
2016-12-21T09:39:29.871Z,87.46
2016-12-21T09:41:00.742Z,87.74
2016-12-21T09:42:32.209Z,88.31
2016-12-21T09:43:46.452Z,88.12
2016-12-21T09:45:01.164Z,88.02
2016-12-21T09:46:16.456Z,87.84
2016-12-21T09:47:30.787Z,87.93
2016-12-21T09:48:48.519Z,87.74
2016-12-21T09:50:02.565Z,88.02
2016-12-21T09:51:17.695Z,88.68
2016-12-21T09:52:32.519Z,88.07
2016-12-21T09:53:46.886Z,88.68
2016-12-21T09:55:01.311Z,88.55
2016-12-21T09:56:15.955Z,88.07
2016-12-21T09:57:30.458Z,88.87
2016-12-21T09:58:44.154Z,89.02
2016-12-21T09:59:58.516Z,88.07
2016-12-21T10:01:12.968Z,88.78
2016-12-21T10:02:27.279Z,88.31
2016-12-21T10:03:55.837Z,88.21
2016-12-21T10:05:09.606Z,88.4
2016-12-21T10:06:23.662Z,87.93
2016-12-21T10:07:37.862Z,87.93
2016-12-21T10:08:51.845Z,87.93
2016-12-21T10:10:07.261Z,87.74
2016-12-21T10:11:23.777Z,88.12
2016-12-21T10:12:40.545Z,88.21
2016-12-21T10:13:57.294Z,88.49
2016-12-21T10:15:14.947Z,88.4
2016-12-21T10:16:32.551Z,89.44
2016-12-21T10:17:50.228Z,88.78
2016-12-21T10:19:07.321Z,88.78
2016-12-21T10:20:23.789Z,88.31
2016-12-21T10:21:38.919Z,87.84
2016-12-21T10:22:53.516Z,88.02
2016-12-21T10:24:10.033Z,87.93
2016-12-21T10:25:27.491Z,88.4
2016-12-21T10:26:45.974Z,88.4
2016-12-21T10:28:03.285Z,88.49
2016-12-21T10:29:20.662Z,88.4
2016-12-21T10:30:38.075Z,88.4
2016-12-21T10:31:53.034Z,88.49
2016-12-21T10:33:23.267Z,88.78
2016-12-21T10:34:39.452Z,87.65
2016-12-21T10:36:09.916Z,88.02
2016-12-21T10:37:25.164Z,88.21
2016-12-21T10:38:40.149Z,88.4
2016-12-21T10:39:55.923Z,88.31
2016-12-21T10:41:10.634Z,88.4
2016-12-21T10:42:25.985Z,88.4
2016-12-21T10:43:40.582Z,88.4
2016-12-21T10:46:25.881Z,88.4
2016-12-21T10:47:40.022Z,88.21
2016-12-21T10:48:54.539Z,88.4
2016-12-21T10:50:08.568Z,88.83
2016-12-21T10:51:23.260Z,89.4
2016-12-21T10:52:37.969Z,89.59
2016-12-21T10:53:53.868Z,89.31
2016-12-21T10:55:11.217Z,88.55
2016-12-21T10:56:28.092Z,88.83
2016-12-21T10:57:45.293Z,89.21
2016-12-21T10:59:02.076Z,89.12
2016-12-21T11:00:17.767Z,88.83
2016-12-21T11:01:32.156Z,89.12
2016-12-21T11:02:47.242Z,89.12
2016-12-21T11:04:02.739Z,89.02
2016-12-21T11:05:18.614Z,89.12
2016-12-21T11:06:33.697Z,89.4
2016-12-21T11:07:55.404Z,89.12
2016-12-21T11:09:23.014Z,88.97
2016-12-21T11:10:42.217Z,88.97
2016-12-21T11:11:57.951Z,88.68
2016-12-21T11:13:15.024Z,88.59
2016-12-21T11:14:32.395Z,88.4
2016-12-21T11:16:04.012Z,88.68
2016-12-21T11:17:20.721Z,88.49
2016-12-21T11:18:53.075Z,88.97
2016-12-21T11:20:10.245Z,88.68
2016-12-21T11:21:27.724Z,88.49
2016-12-21T11:23:14.594Z,89.16
2016-12-21T11:24:33.244Z,88.31
2016-12-21T11:25:50.979Z,88.31
2016-12-21T11:27:07.798Z,88.49
2016-12-21T11:28:24.493Z,89.31
2016-12-21T11:29:56.355Z,89.97
2016-12-21T11:31:15.109Z,89.5
2016-12-21T11:32:30.526Z,89.5
2016-12-21T11:33:45.882Z,88.97
2016-12-21T11:35:03.232Z,88.59
2016-12-21T11:36:19.552Z,88.4
2016-12-21T11:37:36.867Z,88.87
2016-12-21T11:38:53.783Z,89.06
2016-12-21T11:40:10.451Z,88.68
2016-12-21T11:41:26.341Z,88.4
2016-12-21T11:42:43.407Z,88.12
2016-12-21T11:44:16.977Z,89.06
2016-12-21T11:45:52.740Z,88.31
2016-12-21T11:47:23.518Z,88.31
2016-12-21T11:48:42.127Z,89.06
2016-12-21T11:50:01.577Z,88.49
2016-12-21T11:51:19.182Z,88.97
2016-12-21T11:52:42.975Z,88.31
2016-12-21T11:54:01.223Z,88.59
2016-12-21T11:55:15.786Z,88.4
2016-12-21T11:56:30.637Z,88.12
2016-12-21T11:57:45.277Z,88.4
2016-12-21T11:59:00.722Z,88.59
2016-12-21T12:00:15.261Z,88.59
2016-12-21T12:01:30.785Z,88.02
2016-12-21T12:02:44.577Z,87.74
2016-12-21T12:03:59.539Z,87.36
2016-12-21T12:05:13.673Z,87.46
2016-12-21T12:06:29.291Z,87.46
2016-12-21T12:07:45.283Z,87.08
2016-12-21T12:09:01.509Z,87.65
2016-12-21T12:10:17.817Z,87.46
2016-12-21T12:11:33.297Z,88.12
2016-12-21T12:12:50.119Z,88.12
2016-12-21T12:14:06.532Z,87.93
2016-12-21T12:15:22.632Z,87.93
2016-12-21T12:16:37.032Z,88.31
2016-12-21T12:17:53.060Z,89.06
2016-12-21T12:19:10.038Z,88.4
2016-12-21T12:20:31.660Z,88.12
2016-12-21T12:21:47.285Z,88.31
2016-12-21T12:23:03.089Z,87.55
2016-12-21T12:24:19.997Z,87.65
2016-12-21T12:25:36.109Z,87.27
2016-12-21T12:26:52.090Z,87.27
2016-12-21T12:28:08.037Z,87.17
2016-12-21T12:29:26.048Z,87.08
2016-12-21T12:30:43.206Z,86.98
2016-12-21T12:31:58.795Z,87.27
2016-12-21T12:33:14.974Z,87.55
2016-12-21T12:34:30.614Z,87.65
2016-12-21T12:35:45.387Z,87.55
2016-12-21T12:36:59.632Z,88.02
2016-12-21T12:38:14.552Z,87.93
2016-12-21T12:39:29.507Z,87.93
2016-12-21T12:40:43.583Z,87.84
2016-12-21T12:41:58.149Z,87.84
2016-12-21T12:43:12.083Z,88.12
2016-12-21T12:44:26.653Z,87.93
2016-12-21T12:45:40.916Z,87.84
2016-12-21T12:46:54.976Z,88.02
2016-12-21T12:48:09.298Z,87.93
2016-12-21T12:49:23.354Z,88.49
2016-12-21T12:50:37.833Z,87.93
2016-12-21T12:51:53.123Z,87.93
2016-12-21T12:53:08.584Z,87.93
2016-12-21T12:54:24.141Z,87.93
2016-12-21T12:55:39.092Z,87.84
2016-12-21T12:56:53.293Z,88.12
2016-12-21T12:58:07.888Z,87.93
2016-12-21T12:59:22.843Z,88.59
2016-12-21T13:00:37.720Z,88.02
2016-12-21T13:01:51.916Z,87.93
2016-12-21T13:03:07.145Z,87.55
2016-12-21T13:04:21.775Z,86.79
2016-12-21T13:05:36.154Z,87.46
2016-12-21T13:06:50.075Z,87.55
2016-12-21T13:10:17.882Z,87.65
2016-12-21T13:11:31.970Z,87.65
2016-12-21T13:12:46.562Z,86.89
2016-12-21T13:14:01.909Z,87.08
2016-12-21T13:15:16.576Z,87.36
2016-12-21T13:16:35.157Z,87.55
2016-12-21T13:17:54.607Z,87.84
2016-12-21T13:21:00.062Z,87.93
2016-12-21T13:22:20.026Z,88.02
2016-12-21T13:23:39.042Z,87.74
2016-12-21T13:24:56.548Z,88.02
2016-12-21T13:26:13.472Z,87.74
2016-12-21T13:27:31.522Z,88.02
2016-12-21T13:28:48.629Z,87.46
2016-12-21T13:30:06.345Z,88.12
2016-12-21T13:31:26.597Z,88.21
2016-12-21T13:32:45.658Z,87.46
2016-12-21T13:34:01.737Z,87.08
2016-12-21T13:35:16.472Z,87.36
2016-12-21T13:36:33.214Z,87.27
2016-12-21T13:37:53.682Z,86.98
2016-12-21T13:39:30.445Z,87.36
2016-12-21T13:40:50.212Z,87.46
2016-12-21T13:42:22.529Z,87.65
2016-12-21T13:43:40.441Z,88.4
2016-12-21T13:44:56.509Z,88.31
2016-12-21T13:46:12.044Z,88.49
2016-12-21T13:47:32.695Z,88.59
2016-12-21T13:48:50.987Z,88.49
2016-12-21T13:51:44.726Z,88.97
2016-12-21T13:53:01.417Z,88.68
2016-12-21T13:54:15.814Z,88.31
2016-12-21T13:55:30.709Z,88.31
2016-12-21T13:56:45.061Z,87.84
2016-12-21T13:57:59.912Z,88.12
2016-12-21T13:59:14.553Z,87.84
2016-12-21T14:00:29.311Z,88.78
2016-12-21T14:01:43.576Z,88.49
2016-12-21T14:02:57.962Z,89.16
2016-12-21T14:04:13.526Z,88.97
2016-12-21T14:05:29.769Z,88.68
2016-12-21T14:06:45.358Z,89.16
2016-12-21T14:07:59.902Z,88.87
2016-12-21T14:09:13.700Z,88.87
2016-12-21T14:10:29.460Z,88.68
2016-12-21T14:11:43.504Z,88.97
2016-12-21T14:12:57.945Z,88.87
2016-12-21T14:14:12.263Z,88.31
2016-12-21T14:15:25.995Z,88.4
2016-12-21T14:16:40.811Z,88.31
2016-12-21T14:17:55.619Z,88.4
2016-12-21T14:19:10.854Z,88.97
2016-12-21T14:20:24.794Z,88.31
2016-12-21T14:21:39.664Z,88.4
2016-12-21T14:22:54.526Z,88.12
2016-12-21T14:24:23.067Z,88.68
2016-12-21T14:25:37.014Z,88.4
2016-12-21T14:26:50.929Z,88.49
2016-12-21T14:28:05.030Z,87.93
2016-12-21T14:29:19.164Z,88.4
2016-12-21T14:30:33.119Z,88.4
2016-12-21T14:31:47.113Z,88.4
2016-12-21T14:33:01.168Z,88.31
2016-12-21T14:34:14.957Z,88.4
2016-12-21T14:35:29.027Z,88.68
2016-12-21T14:36:42.736Z,88.68
2016-12-21T14:37:57.011Z,88.68
2016-12-21T14:39:10.970Z,88.78
2016-12-21T14:40:25.175Z,88.49
2016-12-21T14:41:39.743Z,88.59
2016-12-21T14:42:54.542Z,88.49
2016-12-21T14:44:09.172Z,88.12
2016-12-21T14:45:24.998Z,88.4
2016-12-21T14:46:39.551Z,87.74
2016-12-21T14:47:54.080Z,87.74
2016-12-21T14:49:08.232Z,87.93
2016-12-21T14:50:22.655Z,88.49
2016-12-21T14:51:37.370Z,87.65
2016-12-21T14:52:51.466Z,88.49
2016-12-21T14:54:06.101Z,87.84
2016-12-21T14:55:20.837Z,87.84
2016-12-21T14:56:34.869Z,87.55
2016-12-21T14:57:48.881Z,87.46
2016-12-21T14:59:03.511Z,87.84
2016-12-21T15:00:18.054Z,87.36
2016-12-21T15:01:32.433Z,87.55
2016-12-21T15:02:46.143Z,87.74
2016-12-21T15:04:00.631Z,87.46
2016-12-21T15:05:15.521Z,87.65
2016-12-21T15:06:29.574Z,87.08
2016-12-21T15:07:46.063Z,87.21
2016-12-21T15:09:00.197Z,87.55
2016-12-21T15:10:14.270Z,87.65
2016-12-21T15:11:28.303Z,87.46
2016-12-21T15:12:44.554Z,87.46
2016-12-21T15:13:58.989Z,87.93
2016-12-21T15:15:13.067Z,88.21
2016-12-21T15:16:26.769Z,88.49
2016-12-21T15:17:40.546Z,88.59
2016-12-21T15:18:54.947Z,88.49
2016-12-21T15:20:08.650Z,88.31
2016-12-21T15:21:22.881Z,88.59
2016-12-21T15:22:36.962Z,88.87
2016-12-21T15:23:51.978Z,88.49
2016-12-21T15:25:06.501Z,88.4
2016-12-21T15:26:21.339Z,89.35
2016-12-21T15:27:35.784Z,88.4
2016-12-21T15:28:49.839Z,88.68
2016-12-21T15:30:03.552Z,88.78
2016-12-21T15:31:18.109Z,89.06
2016-12-21T15:32:32.304Z,89.16
2016-12-21T15:33:46.627Z,89.63
2016-12-21T15:35:01.038Z,89.44
2016-12-21T15:36:15.227Z,90.2
2016-12-21T15:37:29.610Z,90.3
2016-12-21T15:38:43.702Z,90.48
2016-12-21T15:39:58.115Z,90.77
2016-12-21T15:41:26.688Z,90.86
2016-12-21T15:42:40.948Z,90.96
2016-12-21T15:43:55.005Z,90.86
2016-12-21T15:45:09.462Z,91.24
2016-12-21T15:46:23.775Z,91.43
2016-12-21T15:47:38.420Z,91.05
2016-12-21T15:48:52.858Z,90.67
2016-12-21T15:50:07.336Z,90.48
2016-12-21T15:51:22.134Z,90.96
2016-12-21T15:52:36.763Z,91.43
2016-12-21T15:53:50.819Z,90.86
2016-12-21T15:56:34.379Z,90.77
2016-12-21T15:57:48.481Z,90.96
2016-12-21T15:59:02.849Z,91.05
2016-12-21T16:00:17.092Z,90.48
2016-12-21T16:01:31.585Z,90.2
2016-12-21T16:02:45.319Z,90.01
2016-12-21T16:03:59.731Z,89.82
2016-12-21T16:05:13.458Z,90.01
2016-12-21T16:06:27.718Z,89.82
2016-12-21T16:07:42.246Z,89.44
2016-12-21T16:08:56.259Z,89.44
2016-12-21T16:10:11.148Z,89.06
2016-12-21T16:11:25.260Z,89.35
2016-12-21T16:12:39.082Z,88.87
2016-12-21T16:13:53.663Z,89.25
2016-12-21T16:15:07.744Z,88.87
2016-12-21T16:16:21.428Z,89.35
2016-12-21T16:17:35.212Z,88.59
2016-12-21T16:18:49.131Z,88.49
2016-12-21T16:20:03.502Z,88.73
2016-12-21T16:21:17.541Z,88.49
2016-12-21T16:22:31.251Z,88.78
2016-12-21T16:23:45.363Z,88.68
2016-12-21T16:25:01.588Z,89.16
2016-12-21T16:26:15.640Z,89.82
2016-12-21T16:27:31.043Z,89.82
2016-12-21T16:28:45.140Z,90.01
2016-12-21T16:29:59.203Z,90.39
2016-12-21T16:31:13.834Z,90.39
2016-12-21T16:32:28.418Z,90.48
2016-12-21T16:33:43.250Z,90.48
2016-12-21T16:34:57.325Z,90.67
2016-12-21T16:36:11.385Z,90.67
2016-12-21T16:37:25.876Z,91.15
2016-12-21T16:38:40.097Z,91.53
2016-12-21T16:39:54.176Z,91.34